sensor_id;sensor_type;location;lat;lon;timestamp;P1;durP1;ratioP1;P2;durP2;ratioP2
51660;SDS011;37741;49.748;8.490;2023-11-21T00:00:55;4.13;;;1.85;;
51660;SDS011;37741;49.748;8.490;2023-11-21T00:03:20;3.10;;;1.35;;
51660;SDS011;37741;49.748;8.490;2023-11-21T00:05:48;3.47;;;1.40;;
51660;SDS011;37741;49.748;8.490;2023-11-21T00:08:14;3.17;;;1.33;;
51660;SDS011;37741;49.748;8.490;2023-11-21T00:10:39;4.00;;;1.25;;
51660;SDS011;37741;49.748;8.490;2023-11-21T00:13:05;4.10;;;1.40;;
51660;SDS011;37741;49.748;8.490;2023-11-21T00:15:31;3.45;;;1.30;;
51660;SDS011;37741;49.748;8.490;2023-11-21T00:17:56;3.53;;;1.38;;
51660;SDS011;37741;49.748;8.490;2023-11-21T00:20:22;3.97;;;1.35;;
51660;SDS011;37741;49.748;8.490;2023-11-21T00:22:48;3.38;;;1.25;;
51660;SDS011;37741;49.748;8.490;2023-11-21T00:25:13;3.58;;;1.23;;
51660;SDS011;37741;49.748;8.490;2023-11-21T00:27:41;3.70;;;1.42;;
51660;SDS011;37741;49.748;8.490;2023-11-21T00:30:06;3.05;;;1.17;;
51660;SDS011;37741;49.748;8.490;2023-11-21T00:32:34;4.25;;;1.30;;
51660;SDS011;37741;49.748;8.490;2023-11-21T00:35:01;3.22;;;1.35;;
51660;SDS011;37741;49.748;8.490;2023-11-21T00:37:26;3.55;;;1.40;;
51660;SDS011;37741;49.748;8.490;2023-11-21T00:39:52;3.97;;;1.40;;
51660;SDS011;37741;49.748;8.490;2023-11-21T00:42:18;2.65;;;1.10;;
51660;SDS011;37741;49.748;8.490;2023-11-21T00:44:43;3.35;;;0.95;;
51660;SDS011;37741;49.748;8.490;2023-11-21T00:47:09;5.82;;;1.30;;
51660;SDS011;37741;49.748;8.490;2023-11-21T00:49:34;3.22;;;1.23;;
51660;SDS011;37741;49.748;8.490;2023-11-21T00:52:00;3.20;;;1.30;;
51660;SDS011;37741;49.748;8.490;2023-11-21T00:54:27;2.70;;;1.15;;
51660;SDS011;37741;49.748;8.490;2023-11-21T00:56:53;3.15;;;1.30;;
51660;SDS011;37741;49.748;8.490;2023-11-21T00:59:18;4.18;;;1.30;;
51660;SDS011;37741;49.748;8.490;2023-11-21T01:01:44;3.17;;;1.15;;
51660;SDS011;37741;49.748;8.490;2023-11-21T01:04:10;2.55;;;1.05;;
51660;SDS011;37741;49.748;8.490;2023-11-21T01:06:36;4.03;;;1.38;;
51660;SDS011;37741;49.748;8.490;2023-11-21T01:09:01;4.57;;;1.30;;
51660;SDS011;37741;49.748;8.490;2023-11-21T01:11:32;3.97;;;1.30;;
51660;SDS011;37741;49.748;8.490;2023-11-21T01:14:01;2.45;;;1.23;;
51660;SDS011;37741;49.748;8.490;2023-11-21T01:16:28;6.28;;;1.50;;
51660;SDS011;37741;49.748;8.490;2023-11-21T01:18:54;4.05;;;1.25;;
51660;SDS011;37741;49.748;8.490;2023-11-21T01:21:19;2.40;;;1.08;;
51660;SDS011;37741;49.748;8.490;2023-11-21T01:23:45;2.53;;;1.25;;
51660;SDS011;37741;49.748;8.490;2023-11-21T01:26:12;3.08;;;1.17;;
51660;SDS011;37741;49.748;8.490;2023-11-21T01:28:38;4.68;;;1.38;;
51660;SDS011;37741;49.748;8.490;2023-11-21T01:31:04;2.70;;;1.10;;
51660;SDS011;37741;49.748;8.490;2023-11-21T01:33:29;3.53;;;1.40;;
51660;SDS011;37741;49.748;8.490;2023-11-21T01:35:55;5.18;;;1.50;;
51660;SDS011;37741;49.748;8.490;2023-11-21T01:38:21;3.20;;;1.48;;
51660;SDS011;37741;49.748;8.490;2023-11-21T01:40:47;2.60;;;1.10;;
51660;SDS011;37741;49.748;8.490;2023-11-21T01:43:13;4.45;;;1.27;;
51660;SDS011;37741;49.748;8.490;2023-11-21T01:45:38;4.00;;;1.88;;
51660;SDS011;37741;49.748;8.490;2023-11-21T01:48:04;5.35;;;1.35;;
51660;SDS011;37741;49.748;8.490;2023-11-21T01:50:32;2.90;;;1.25;;
51660;SDS011;37741;49.748;8.490;2023-11-21T01:52:58;4.57;;;1.20;;
51660;SDS011;37741;49.748;8.490;2023-11-21T01:55:25;3.65;;;1.60;;
51660;SDS011;37741;49.748;8.490;2023-11-21T01:57:52;4.47;;;1.50;;
51660;SDS011;37741;49.748;8.490;2023-11-21T02:00:19;3.83;;;1.17;;
51660;SDS011;37741;49.748;8.490;2023-11-21T02:02:45;4.05;;;1.75;;
51660;SDS011;37741;49.748;8.490;2023-11-21T02:05:12;4.05;;;1.55;;
51660;SDS011;37741;49.748;8.490;2023-11-21T02:07:43;2.42;;;1.23;;
51660;SDS011;37741;49.748;8.490;2023-11-21T02:10:09;4.50;;;1.70;;
51660;SDS011;37741;49.748;8.490;2023-11-21T02:12:35;3.72;;;1.88;;
51660;SDS011;37741;49.748;8.490;2023-11-21T02:15:04;2.75;;;1.40;;
51660;SDS011;37741;49.748;8.490;2023-11-21T02:17:39;5.30;;;1.20;;
51660;SDS011;37741;49.748;8.490;2023-11-21T02:20:10;3.75;;;1.48;;
51660;SDS011;37741;49.748;8.490;2023-11-21T02:22:40;8.57;;;2.45;;
51660;SDS011;37741;49.748;8.490;2023-11-21T02:25:07;3.53;;;1.30;;
51660;SDS011;37741;49.748;8.490;2023-11-21T02:27:34;3.17;;;1.50;;
51660;SDS011;37741;49.748;8.490;2023-11-21T02:30:00;4.32;;;1.52;;
51660;SDS011;37741;49.748;8.490;2023-11-21T02:32:26;4.65;;;1.50;;
51660;SDS011;37741;49.748;8.490;2023-11-21T02:34:52;3.55;;;1.23;;
51660;SDS011;37741;49.748;8.490;2023-11-21T02:37:21;3.33;;;1.40;;
51660;SDS011;37741;49.748;8.490;2023-11-21T02:39:46;3.70;;;1.70;;
51660;SDS011;37741;49.748;8.490;2023-11-21T02:42:12;4.22;;;2.15;;
51660;SDS011;37741;49.748;8.490;2023-11-21T02:44:38;4.88;;;1.48;;
51660;SDS011;37741;49.748;8.490;2023-11-21T02:47:04;3.17;;;1.17;;
51660;SDS011;37741;49.748;8.490;2023-11-21T02:49:30;3.53;;;1.27;;
51660;SDS011;37741;49.748;8.490;2023-11-21T02:51:55;2.97;;;1.20;;
51660;SDS011;37741;49.748;8.490;2023-11-21T02:54:22;2.97;;;1.27;;
51660;SDS011;37741;49.748;8.490;2023-11-21T02:56:48;4.10;;;1.55;;
51660;SDS011;37741;49.748;8.490;2023-11-21T02:59:15;2.80;;;1.40;;
51660;SDS011;37741;49.748;8.490;2023-11-21T03:01:41;3.80;;;1.73;;
51660;SDS011;37741;49.748;8.490;2023-11-21T03:04:07;2.70;;;1.23;;
51660;SDS011;37741;49.748;8.490;2023-11-21T03:06:33;4.78;;;1.95;;
51660;SDS011;37741;49.748;8.490;2023-11-21T03:08:59;5.30;;;1.77;;
51660;SDS011;37741;49.748;8.490;2023-11-21T03:11:25;2.88;;;1.20;;
51660;SDS011;37741;49.748;8.490;2023-11-21T03:13:50;3.25;;;1.73;;
51660;SDS011;37741;49.748;8.490;2023-11-21T03:16:16;4.57;;;1.52;;
51660;SDS011;37741;49.748;8.490;2023-11-21T03:18:44;3.67;;;1.02;;
51660;SDS011;37741;49.748;8.490;2023-11-21T03:21:10;4.57;;;1.45;;
51660;SDS011;37741;49.748;8.490;2023-11-21T03:23:36;2.20;;;1.08;;
51660;SDS011;37741;49.748;8.490;2023-11-21T03:26:02;5.38;;;1.75;;
51660;SDS011;37741;49.748;8.490;2023-11-21T03:28:28;4.22;;;1.52;;
51660;SDS011;37741;49.748;8.490;2023-11-21T03:30:55;2.78;;;1.58;;
51660;SDS011;37741;49.748;8.490;2023-11-21T03:33:21;3.47;;;1.52;;
51660;SDS011;37741;49.748;8.490;2023-11-21T03:35:47;3.70;;;2.33;;
51660;SDS011;37741;49.748;8.490;2023-11-21T03:38:14;4.63;;;1.40;;
51660;SDS011;37741;49.748;8.490;2023-11-21T03:40:41;6.70;;;1.67;;
51660;SDS011;37741;49.748;8.490;2023-11-21T03:43:07;2.80;;;1.10;;
51660;SDS011;37741;49.748;8.490;2023-11-21T03:45:32;4.70;;;2.13;;
51660;SDS011;37741;49.748;8.490;2023-11-21T03:47:58;4.18;;;1.30;;
51660;SDS011;37741;49.748;8.490;2023-11-21T03:50:26;3.90;;;1.35;;
51660;SDS011;37741;49.748;8.490;2023-11-21T03:52:53;3.03;;;1.35;;
51660;SDS011;37741;49.748;8.490;2023-11-21T03:55:19;3.38;;;1.98;;
51660;SDS011;37741;49.748;8.490;2023-11-21T03:57:44;3.75;;;1.23;;
51660;SDS011;37741;49.748;8.490;2023-11-21T04:00:10;4.47;;;1.65;;
51660;SDS011;37741;49.748;8.490;2023-11-21T04:02:36;3.50;;;1.33;;
51660;SDS011;37741;49.748;8.490;2023-11-21T04:05:02;2.33;;;1.25;;
51660;SDS011;37741;49.748;8.490;2023-11-21T04:07:28;3.33;;;1.25;;
51660;SDS011;37741;49.748;8.490;2023-11-21T04:09:54;2.25;;;1.08;;
51660;SDS011;37741;49.748;8.490;2023-11-21T04:12:20;3.85;;;1.20;;
51660;SDS011;37741;49.748;8.490;2023-11-21T04:14:45;4.55;;;1.27;;
51660;SDS011;37741;49.748;8.490;2023-11-21T04:17:11;2.58;;;1.40;;
51660;SDS011;37741;49.748;8.490;2023-11-21T04:19:36;2.65;;;1.17;;
51660;SDS011;37741;49.748;8.490;2023-11-21T04:22:02;2.15;;;1.00;;
51660;SDS011;37741;49.748;8.490;2023-11-21T04:24:29;2.00;;;1.10;;
51660;SDS011;37741;49.748;8.490;2023-11-21T04:26:55;3.70;;;1.30;;
51660;SDS011;37741;49.748;8.490;2023-11-21T04:29:20;2.92;;;1.27;;
51660;SDS011;37741;49.748;8.490;2023-11-21T04:31:46;3.17;;;1.45;;
51660;SDS011;37741;49.748;8.490;2023-11-21T04:34:14;2.83;;;1.35;;
51660;SDS011;37741;49.748;8.490;2023-11-21T04:36:39;2.42;;;1.40;;
51660;SDS011;37741;49.748;8.490;2023-11-21T04:39:05;2.60;;;1.13;;
51660;SDS011;37741;49.748;8.490;2023-11-21T04:41:31;3.38;;;1.23;;
51660;SDS011;37741;49.748;8.490;2023-11-21T04:43:57;3.90;;;1.30;;
51660;SDS011;37741;49.748;8.490;2023-11-21T04:46:23;5.15;;;1.65;;
51660;SDS011;37741;49.748;8.490;2023-11-21T04:48:49;4.53;;;1.40;;
51660;SDS011;37741;49.748;8.490;2023-11-21T04:51:15;3.83;;;1.48;;
51660;SDS011;37741;49.748;8.490;2023-11-21T04:53:40;2.72;;;1.17;;
51660;SDS011;37741;49.748;8.490;2023-11-21T04:56:06;3.45;;;1.42;;
51660;SDS011;37741;49.748;8.490;2023-11-21T04:58:32;2.92;;;1.40;;
51660;SDS011;37741;49.748;8.490;2023-11-21T05:00:58;2.92;;;1.05;;
51660;SDS011;37741;49.748;8.490;2023-11-21T05:03:23;3.03;;;1.20;;
51660;SDS011;37741;49.748;8.490;2023-11-21T05:05:49;2.45;;;1.20;;
51660;SDS011;37741;49.748;8.490;2023-11-21T05:08:15;2.90;;;1.50;;
51660;SDS011;37741;49.748;8.490;2023-11-21T05:10:40;3.63;;;1.67;;
51660;SDS011;37741;49.748;8.490;2023-11-21T05:13:06;5.28;;;2.13;;
51660;SDS011;37741;49.748;8.490;2023-11-21T05:15:35;3.55;;;1.88;;
51660;SDS011;37741;49.748;8.490;2023-11-21T05:18:03;2.63;;;1.38;;
51660;SDS011;37741;49.748;8.490;2023-11-21T05:20:28;4.97;;;1.67;;
51660;SDS011;37741;49.748;8.490;2023-11-21T05:22:54;4.82;;;2.90;;
51660;SDS011;37741;49.748;8.490;2023-11-21T05:25:19;3.45;;;2.25;;
51660;SDS011;37741;49.748;8.490;2023-11-21T05:27:45;3.65;;;2.03;;
51660;SDS011;37741;49.748;8.490;2023-11-21T05:30:12;3.90;;;2.28;;
51660;SDS011;37741;49.748;8.490;2023-11-21T05:32:39;4.38;;;2.80;;
51660;SDS011;37741;49.748;8.490;2023-11-21T05:35:07;4.60;;;2.60;;
51660;SDS011;37741;49.748;8.490;2023-11-21T05:37:37;6.07;;;2.42;;
51660;SDS011;37741;49.748;8.490;2023-11-21T05:40:06;5.18;;;2.80;;
51660;SDS011;37741;49.748;8.490;2023-11-21T05:42:36;4.45;;;2.70;;
51660;SDS011;37741;49.748;8.490;2023-11-21T05:45:03;7.10;;;3.92;;
51660;SDS011;37741;49.748;8.490;2023-11-21T05:47:39;6.40;;;3.83;;
51660;SDS011;37741;49.748;8.490;2023-11-21T05:50:06;4.45;;;3.92;;
51660;SDS011;37741;49.748;8.490;2023-11-21T05:52:39;6.75;;;3.85;;
51660;SDS011;37741;49.748;8.490;2023-11-21T05:55:05;7.85;;;4.53;;
51660;SDS011;37741;49.748;8.490;2023-11-21T05:57:35;7.03;;;4.45;;
51660;SDS011;37741;49.748;8.490;2023-11-21T06:00:05;5.15;;;4.32;;
51660;SDS011;37741;49.748;8.490;2023-11-21T06:02:40;6.25;;;4.97;;
51660;SDS011;37741;49.748;8.490;2023-11-21T06:05:06;7.18;;;5.00;;
51660;SDS011;37741;49.748;8.490;2023-11-21T06:07:33;5.70;;;4.18;;
51660;SDS011;37741;49.748;8.490;2023-11-21T06:10:00;7.18;;;5.15;;
51660;SDS011;37741;49.748;8.490;2023-11-21T06:12:32;8.10;;;4.00;;
51660;SDS011;37741;49.748;8.490;2023-11-21T06:15:01;5.68;;;4.65;;
51660;SDS011;37741;49.748;8.490;2023-11-21T06:17:34;6.05;;;4.40;;
51660;SDS011;37741;49.748;8.490;2023-11-21T06:20:04;7.50;;;4.93;;
51660;SDS011;37741;49.748;8.490;2023-11-21T06:22:37;6.68;;;4.75;;
51660;SDS011;37741;49.748;8.490;2023-11-21T06:25:04;6.25;;;4.50;;
51660;SDS011;37741;49.748;8.490;2023-11-21T06:27:31;8.18;;;4.35;;
51660;SDS011;37741;49.748;8.490;2023-11-21T06:29:58;6.03;;;4.65;;
51660;SDS011;37741;49.748;8.490;2023-11-21T06:32:24;6.85;;;4.03;;
51660;SDS011;37741;49.748;8.490;2023-11-21T06:34:49;4.90;;;4.00;;
51660;SDS011;37741;49.748;8.490;2023-11-21T06:37:21;6.05;;;4.38;;
51660;SDS011;37741;49.748;8.490;2023-11-21T06:39:48;5.85;;;4.15;;
51660;SDS011;37741;49.748;8.490;2023-11-21T06:42:14;6.47;;;4.22;;
51660;SDS011;37741;49.748;8.490;2023-11-21T06:44:40;5.70;;;4.07;;
51660;SDS011;37741;49.748;8.490;2023-11-21T06:47:06;4.97;;;3.70;;
51660;SDS011;37741;49.748;8.490;2023-11-21T06:49:32;4.40;;;3.85;;
51660;SDS011;37741;49.748;8.490;2023-11-21T06:51:58;4.40;;;3.42;;
51660;SDS011;37741;49.748;8.490;2023-11-21T06:54:24;4.47;;;3.40;;
51660;SDS011;37741;49.748;8.490;2023-11-21T06:56:50;3.95;;;2.83;;
51660;SDS011;37741;49.748;8.490;2023-11-21T06:59:16;5.55;;;3.28;;
51660;SDS011;37741;49.748;8.490;2023-11-21T07:01:41;5.13;;;3.22;;
51660;SDS011;37741;49.748;8.490;2023-11-21T07:04:08;4.10;;;3.00;;
51660;SDS011;37741;49.748;8.490;2023-11-21T07:06:34;4.03;;;3.13;;
51660;SDS011;37741;49.748;8.490;2023-11-21T07:09:00;3.97;;;2.78;;
51660;SDS011;37741;49.748;8.490;2023-11-21T07:11:26;3.67;;;2.78;;
51660;SDS011;37741;49.748;8.490;2023-11-21T07:13:52;4.78;;;2.60;;
51660;SDS011;37741;49.748;8.490;2023-11-21T07:16:20;4.38;;;2.70;;
51660;SDS011;37741;49.748;8.490;2023-11-21T07:18:47;3.83;;;2.15;;
51660;SDS011;37741;49.748;8.490;2023-11-21T07:21:14;3.38;;;2.47;;
51660;SDS011;37741;49.748;8.490;2023-11-21T07:23:41;3.58;;;2.20;;
51660;SDS011;37741;49.748;8.490;2023-11-21T07:26:06;3.88;;;2.30;;
51660;SDS011;37741;49.748;8.490;2023-11-21T07:28:35;3.75;;;1.92;;
51660;SDS011;37741;49.748;8.490;2023-11-21T07:31:01;2.50;;;2.00;;
51660;SDS011;37741;49.748;8.490;2023-11-21T07:33:30;2.45;;;1.60;;
51660;SDS011;37741;49.748;8.490;2023-11-21T07:35:58;2.95;;;1.90;;
51660;SDS011;37741;49.748;8.490;2023-11-21T07:38:29;3.10;;;2.20;;
51660;SDS011;37741;49.748;8.490;2023-11-21T07:40:57;2.75;;;1.58;;
51660;SDS011;37741;49.748;8.490;2023-11-21T07:43:26;3.90;;;1.45;;
51660;SDS011;37741;49.748;8.490;2023-11-21T07:45:54;2.83;;;1.80;;
51660;SDS011;37741;49.748;8.490;2023-11-21T07:48:20;2.45;;;1.40;;
51660;SDS011;37741;49.748;8.490;2023-11-21T07:50:45;3.92;;;2.10;;
51660;SDS011;37741;49.748;8.490;2023-11-21T07:53:12;3.17;;;1.40;;
51660;SDS011;37741;49.748;8.490;2023-11-21T07:55:39;2.45;;;1.38;;
51660;SDS011;37741;49.748;8.490;2023-11-21T07:58:05;1.95;;;1.27;;
51660;SDS011;37741;49.748;8.490;2023-11-21T08:00:31;2.38;;;1.50;;
51660;SDS011;37741;49.748;8.490;2023-11-21T08:02:57;2.45;;;1.40;;
51660;SDS011;37741;49.748;8.490;2023-11-21T08:05:22;2.80;;;1.40;;
51660;SDS011;37741;49.748;8.490;2023-11-21T08:07:48;2.40;;;1.50;;
51660;SDS011;37741;49.748;8.490;2023-11-21T08:10:14;2.42;;;1.50;;
51660;SDS011;37741;49.748;8.490;2023-11-21T08:12:40;2.25;;;1.48;;
51660;SDS011;37741;49.748;8.490;2023-11-21T08:15:07;3.47;;;1.98;;
51660;SDS011;37741;49.748;8.490;2023-11-21T08:17:36;2.70;;;1.77;;
51660;SDS011;37741;49.748;8.490;2023-11-21T08:20:02;2.83;;;1.90;;
51660;SDS011;37741;49.748;8.490;2023-11-21T08:22:28;2.83;;;1.70;;
51660;SDS011;37741;49.748;8.490;2023-11-21T08:24:54;2.83;;;2.00;;
51660;SDS011;37741;49.748;8.490;2023-11-21T08:27:21;3.17;;;2.30;;
51660;SDS011;37741;49.748;8.490;2023-11-21T08:29:47;4.25;;;2.63;;
51660;SDS011;37741;49.748;8.490;2023-11-21T08:32:12;5.10;;;2.65;;
51660;SDS011;37741;49.748;8.490;2023-11-21T08:34:38;3.50;;;2.33;;
51660;SDS011;37741;49.748;8.490;2023-11-21T08:37:05;4.20;;;3.00;;
51660;SDS011;37741;49.748;8.490;2023-11-21T08:39:30;3.88;;;3.03;;
51660;SDS011;37741;49.748;8.490;2023-11-21T08:41:57;5.40;;;3.67;;
51660;SDS011;37741;49.748;8.490;2023-11-21T08:44:22;5.57;;;3.72;;
51660;SDS011;37741;49.748;8.490;2023-11-21T08:46:48;5.00;;;3.30;;
51660;SDS011;37741;49.748;8.490;2023-11-21T08:49:14;4.80;;;4.00;;
51660;SDS011;37741;49.748;8.490;2023-11-21T08:51:40;6.00;;;3.83;;
51660;SDS011;37741;49.748;8.490;2023-11-21T08:54:09;4.22;;;3.47;;
51660;SDS011;37741;49.748;8.490;2023-11-21T08:56:36;6.13;;;4.10;;
51660;SDS011;37741;49.748;8.490;2023-11-21T08:59:02;6.07;;;4.50;;
51660;SDS011;37741;49.748;8.490;2023-11-21T09:01:29;5.90;;;4.47;;
51660;SDS011;37741;49.748;8.490;2023-11-21T09:03:57;4.88;;;3.92;;
51660;SDS011;37741;49.748;8.490;2023-11-21T09:06:23;5.70;;;3.78;;
51660;SDS011;37741;49.748;8.490;2023-11-21T09:08:49;8.57;;;5.05;;
51660;SDS011;37741;49.748;8.490;2023-11-21T09:11:15;6.32;;;4.82;;
51660;SDS011;37741;49.748;8.490;2023-11-21T09:13:42;7.90;;;5.45;;
51660;SDS011;37741;49.748;8.490;2023-11-21T09:16:07;6.85;;;5.32;;
51660;SDS011;37741;49.748;8.490;2023-11-21T09:18:33;9.00;;;5.25;;
51660;SDS011;37741;49.748;8.490;2023-11-21T09:20:59;6.70;;;5.00;;
51660;SDS011;37741;49.748;8.490;2023-11-21T09:23:24;7.05;;;5.50;;
51660;SDS011;37741;49.748;8.490;2023-11-21T09:25:50;7.82;;;5.07;;
51660;SDS011;37741;49.748;8.490;2023-11-21T09:28:17;6.50;;;5.70;;
51660;SDS011;37741;49.748;8.490;2023-11-21T09:30:43;7.60;;;5.90;;
51660;SDS011;37741;49.748;8.490;2023-11-21T09:33:09;7.38;;;5.97;;
51660;SDS011;37741;49.748;8.490;2023-11-21T09:35:38;7.60;;;5.53;;
51660;SDS011;37741;49.748;8.490;2023-11-21T09:38:04;7.80;;;6.38;;
51660;SDS011;37741;49.748;8.490;2023-11-21T09:40:35;9.43;;;5.97;;
51660;SDS011;37741;49.748;8.490;2023-11-21T09:43:05;9.98;;;6.30;;
51660;SDS011;37741;49.748;8.490;2023-11-21T09:45:36;6.90;;;5.75;;
51660;SDS011;37741;49.748;8.490;2023-11-21T09:48:04;8.55;;;6.07;;
51660;SDS011;37741;49.748;8.490;2023-11-21T09:50:31;8.02;;;5.57;;
51660;SDS011;37741;49.748;8.490;2023-11-21T09:55:43;10.50;;;6.53;;
51660;SDS011;37741;49.748;8.490;2023-11-21T09:58:09;7.80;;;6.00;;
51660;SDS011;37741;49.748;8.490;2023-11-21T10:00:42;6.47;;;4.90;;
51660;SDS011;37741;49.748;8.490;2023-11-21T10:03:13;8.43;;;5.38;;
51660;SDS011;37741;49.748;8.490;2023-11-21T10:05:39;7.32;;;5.43;;
51660;SDS011;37741;49.748;8.490;2023-11-21T10:08:10;7.97;;;5.25;;
51660;SDS011;37741;49.748;8.490;2023-11-21T10:10:37;6.57;;;5.15;;
51660;SDS011;37741;49.748;8.490;2023-11-21T10:13:06;6.78;;;4.85;;
51660;SDS011;37741;49.748;8.490;2023-11-21T10:15:37;9.10;;;5.53;;
51660;SDS011;37741;49.748;8.490;2023-11-21T10:18:03;8.10;;;4.88;;
51660;SDS011;37741;49.748;8.490;2023-11-21T10:20:31;6.60;;;5.10;;
51660;SDS011;37741;49.748;8.490;2023-11-21T10:23:03;6.10;;;4.25;;
51660;SDS011;37741;49.748;8.490;2023-11-21T10:25:29;6.05;;;3.95;;
51660;SDS011;37741;49.748;8.490;2023-11-21T10:27:59;7.10;;;4.43;;
51660;SDS011;37741;49.748;8.490;2023-11-21T10:30:34;5.32;;;4.30;;
51660;SDS011;37741;49.748;8.490;2023-11-21T10:33:02;7.07;;;4.05;;
51660;SDS011;37741;49.748;8.490;2023-11-21T10:35:38;5.18;;;4.05;;
51660;SDS011;37741;49.748;8.490;2023-11-21T10:38:11;5.45;;;3.88;;
51660;SDS011;37741;49.748;8.490;2023-11-21T10:40:39;5.43;;;4.25;;
51660;SDS011;37741;49.748;8.490;2023-11-21T10:43:11;6.13;;;3.83;;
51660;SDS011;37741;49.748;8.490;2023-11-21T10:45:40;5.78;;;3.78;;
51660;SDS011;37741;49.748;8.490;2023-11-21T10:48:07;6.38;;;4.13;;
51660;SDS011;37741;49.748;8.490;2023-11-21T10:50:36;4.75;;;3.45;;
51660;SDS011;37741;49.748;8.490;2023-11-21T10:53:02;6.07;;;3.63;;
51660;SDS011;37741;49.748;8.490;2023-11-21T10:55:29;5.40;;;3.53;;
51660;SDS011;37741;49.748;8.490;2023-11-21T10:57:57;5.53;;;4.10;;
51660;SDS011;37741;49.748;8.490;2023-11-21T11:00:25;5.35;;;3.28;;
51660;SDS011;37741;49.748;8.490;2023-11-21T11:02:52;5.93;;;3.83;;
51660;SDS011;37741;49.748;8.490;2023-11-21T11:05:24;5.95;;;3.58;;
51660;SDS011;37741;49.748;8.490;2023-11-21T11:07:51;5.80;;;3.22;;
51660;SDS011;37741;49.748;8.490;2023-11-21T11:10:44;5.88;;;3.80;;
51660;SDS011;37741;49.748;8.490;2023-11-21T11:13:12;7.40;;;3.60;;
51660;SDS011;37741;49.748;8.490;2023-11-21T11:15:40;5.13;;;3.88;;
51660;SDS011;37741;49.748;8.490;2023-11-21T11:18:06;5.03;;;3.67;;
51660;SDS011;37741;49.748;8.490;2023-11-21T11:20:34;9.98;;;3.75;;
51660;SDS011;37741;49.748;8.490;2023-11-21T11:28:47;5.75;;;3.55;;
51660;SDS011;37741;49.748;8.490;2023-11-21T11:33:58;8.20;;;3.85;;
51660;SDS011;37741;49.748;8.490;2023-11-21T11:36:36;5.57;;;3.47;;
51660;SDS011;37741;49.748;8.490;2023-11-21T11:39:29;5.68;;;3.20;;
51660;SDS011;37741;49.748;8.490;2023-11-21T11:42:03;9.30;;;4.07;;
51660;SDS011;37741;49.748;8.490;2023-11-21T11:47:15;6.10;;;3.53;;
51660;SDS011;37741;49.748;8.490;2023-11-21T11:49:57;5.07;;;3.33;;
51660;SDS011;37741;49.748;8.490;2023-11-21T11:52:31;5.55;;;3.50;;
51660;SDS011;37741;49.748;8.490;2023-11-21T11:54:59;5.47;;;3.70;;
51660;SDS011;37741;49.748;8.490;2023-11-21T11:57:25;5.40;;;2.92;;
51660;SDS011;37741;49.748;8.490;2023-11-21T12:00:07;5.50;;;3.75;;
51660;SDS011;37741;49.748;8.490;2023-11-21T12:02:37;5.10;;;3.03;;
51660;SDS011;37741;49.748;8.490;2023-11-21T12:05:09;4.88;;;2.72;;
51660;SDS011;37741;49.748;8.490;2023-11-21T12:10:13;3.90;;;2.42;;
51660;SDS011;37741;49.748;8.490;2023-11-21T12:12:45;4.97;;;2.50;;
51660;SDS011;37741;49.748;8.490;2023-11-21T12:15:13;5.35;;;2.90;;
51660;SDS011;37741;49.748;8.490;2023-11-21T12:17:39;4.55;;;3.03;;
51660;SDS011;37741;49.748;8.490;2023-11-21T12:20:07;5.38;;;2.85;;
51660;SDS011;37741;49.748;8.490;2023-11-21T12:22:41;5.72;;;2.78;;
51660;SDS011;37741;49.748;8.490;2023-11-21T12:25:08;5.63;;;2.70;;
51660;SDS011;37741;49.748;8.490;2023-11-21T12:27:33;5.82;;;2.58;;
51660;SDS011;37741;49.748;8.490;2023-11-21T12:30:00;3.88;;;2.72;;
51660;SDS011;37741;49.748;8.490;2023-11-21T12:32:26;4.60;;;2.97;;
51660;SDS011;37741;49.748;8.490;2023-11-21T12:34:51;5.82;;;3.78;;
51660;SDS011;37741;49.748;8.490;2023-11-21T12:37:17;6.55;;;3.53;;
51660;SDS011;37741;49.748;8.490;2023-11-21T12:39:43;8.52;;;4.10;;
51660;SDS011;37741;49.748;8.490;2023-11-21T12:42:09;6.25;;;4.28;;
51660;SDS011;37741;49.748;8.490;2023-11-21T12:44:37;7.97;;;4.10;;
51660;SDS011;37741;49.748;8.490;2023-11-21T12:47:06;11.65;;;4.68;;
51660;SDS011;37741;49.748;8.490;2023-11-21T12:49:32;9.10;;;4.55;;
51660;SDS011;37741;49.748;8.490;2023-11-21T12:51:59;10.75;;;5.18;;
51660;SDS011;37741;49.748;8.490;2023-11-21T12:54:24;7.88;;;4.40;;
51660;SDS011;37741;49.748;8.490;2023-11-21T12:56:50;8.68;;;5.20;;
51660;SDS011;37741;49.748;8.490;2023-11-21T12:59:16;11.43;;;4.95;;
51660;SDS011;37741;49.748;8.490;2023-11-21T13:01:43;9.40;;;5.15;;
51660;SDS011;37741;49.748;8.490;2023-11-21T13:04:08;12.13;;;5.25;;
51660;SDS011;37741;49.748;8.490;2023-11-21T13:06:36;8.75;;;5.22;;
51660;SDS011;37741;49.748;8.490;2023-11-21T13:09:06;7.97;;;5.78;;
51660;SDS011;37741;49.748;8.490;2023-11-21T13:11:35;11.13;;;5.55;;
51660;SDS011;37741;49.748;8.490;2023-11-21T13:14:02;7.30;;;4.30;;
51660;SDS011;37741;49.748;8.490;2023-11-21T13:16:28;10.27;;;5.13;;
51660;SDS011;37741;49.748;8.490;2023-11-21T13:18:55;7.55;;;4.53;;
51660;SDS011;37741;49.748;8.490;2023-11-21T13:21:21;9.27;;;5.05;;
51660;SDS011;37741;49.748;8.490;2023-11-21T13:23:47;8.57;;;4.75;;
51660;SDS011;37741;49.748;8.490;2023-11-21T13:26:16;13.27;;;6.85;;
51660;SDS011;37741;49.748;8.490;2023-11-21T13:28:41;10.32;;;5.63;;
51660;SDS011;37741;49.748;8.490;2023-11-21T13:31:11;13.85;;;6.70;;
51660;SDS011;37741;49.748;8.490;2023-11-21T13:33:47;14.48;;;7.20;;
51660;SDS011;37741;49.748;8.490;2023-11-21T13:36:20;15.68;;;7.65;;
51660;SDS011;37741;49.748;8.490;2023-11-21T13:38:50;14.02;;;7.35;;
51660;SDS011;37741;49.748;8.490;2023-11-21T13:41:17;16.98;;;7.57;;
51660;SDS011;37741;49.748;8.490;2023-11-21T13:43:43;11.95;;;6.18;;
51660;SDS011;37741;49.748;8.490;2023-11-21T13:46:18;14.23;;;6.40;;
51660;SDS011;37741;49.748;8.490;2023-11-21T13:48:47;13.48;;;6.30;;
51660;SDS011;37741;49.748;8.490;2023-11-21T13:51:20;11.18;;;7.13;;
51660;SDS011;37741;49.748;8.490;2023-11-21T13:54:10;11.73;;;6.47;;
51660;SDS011;37741;49.748;8.490;2023-11-21T13:56:36;12.48;;;6.95;;
51660;SDS011;37741;49.748;8.490;2023-11-21T13:59:02;14.23;;;6.95;;
51660;SDS011;37741;49.748;8.490;2023-11-21T14:01:48;12.68;;;7.32;;
51660;SDS011;37741;49.748;8.490;2023-11-21T14:04:18;10.20;;;6.57;;
51660;SDS011;37741;49.748;8.490;2023-11-21T14:06:46;13.50;;;6.53;;
51660;SDS011;37741;49.748;8.490;2023-11-21T14:09:23;12.65;;;6.68;;
51660;SDS011;37741;49.748;8.490;2023-11-21T14:11:57;12.68;;;6.30;;
51660;SDS011;37741;49.748;8.490;2023-11-21T14:14:25;8.80;;;5.72;;
51660;SDS011;37741;49.748;8.490;2023-11-21T14:16:53;10.35;;;5.25;;
51660;SDS011;37741;49.748;8.490;2023-11-21T14:19:20;9.85;;;5.57;;
51660;SDS011;37741;49.748;8.490;2023-11-21T14:21:47;9.50;;;5.35;;
51660;SDS011;37741;49.748;8.490;2023-11-21T14:24:15;9.40;;;4.50;;
51660;SDS011;37741;49.748;8.490;2023-11-21T14:26:44;8.70;;;4.70;;
51660;SDS011;37741;49.748;8.490;2023-11-21T14:29:11;10.32;;;4.57;;
51660;SDS011;37741;49.748;8.490;2023-11-21T14:31:44;8.05;;;4.20;;
51660;SDS011;37741;49.748;8.490;2023-11-21T14:34:10;6.20;;;4.22;;
51660;SDS011;37741;49.748;8.490;2023-11-21T14:36:37;7.75;;;4.22;;
51660;SDS011;37741;49.748;8.490;2023-11-21T14:39:04;7.22;;;3.88;;
51660;SDS011;37741;49.748;8.490;2023-11-21T14:41:34;12.15;;;4.22;;
51660;SDS011;37741;49.748;8.490;2023-11-21T14:44:01;7.15;;;4.43;;
51660;SDS011;37741;49.748;8.490;2023-11-21T14:46:32;6.03;;;3.88;;
51660;SDS011;37741;49.748;8.490;2023-11-21T14:49:00;9.95;;;4.35;;
51660;SDS011;37741;49.748;8.490;2023-11-21T14:51:43;7.40;;;3.75;;
51660;SDS011;37741;49.748;8.490;2023-11-21T14:54:28;5.95;;;3.80;;
51660;SDS011;37741;49.748;8.490;2023-11-21T14:57:11;5.65;;;3.63;;
51660;SDS011;37741;49.748;8.490;2023-11-21T14:59:44;7.65;;;4.20;;
51660;SDS011;37741;49.748;8.490;2023-11-21T15:02:16;7.43;;;3.78;;
51660;SDS011;37741;49.748;8.490;2023-11-21T15:05:08;6.68;;;3.80;;